createdAt,value
2023-04-18T12:17:05.631Z,5.77
2023-04-18T12:19:34.946Z,6.53
2023-04-18T12:22:08.064Z,5.73
2023-04-18T12:24:38.080Z,5.70
2023-04-18T12:27:07.837Z,6.10
2023-04-18T12:29:37.079Z,5.63
2023-04-18T12:32:06.481Z,5.40
2023-04-18T12:34:35.784Z,6.17
2023-04-18T12:37:07.625Z,6.07
2023-04-18T12:39:36.915Z,5.80
2023-04-18T12:42:06.395Z,5.90
2023-04-18T12:44:35.879Z,6.40
2023-04-18T12:47:05.199Z,5.40
2023-04-18T12:49:34.498Z,5.37
2023-04-18T12:52:03.747Z,5.67
2023-04-18T12:54:37.973Z,5.10
2023-04-18T12:57:07.368Z,4.80
2023-04-18T12:59:36.634Z,5.30
2023-04-18T13:02:05.953Z,5.13
2023-04-18T13:04:35.531Z,5.57
2023-04-18T13:07:04.891Z,5.60
2023-04-18T13:09:36.725Z,5.37
2023-04-18T13:12:06.295Z,5.25
2023-04-18T13:14:35.587Z,5.00
2023-04-18T13:17:05.062Z,5.60
2023-04-18T13:19:34.474Z,5.07
2023-04-18T13:22:04.793Z,5.53
2023-04-18T13:24:34.226Z,5.53
2023-04-18T13:27:10.524Z,5.50
2023-04-18T13:29:41.289Z,6.30
2023-04-18T13:32:11.259Z,5.90
2023-04-18T13:34:45.373Z,5.87
2023-04-18T13:37:15.260Z,6.33
2023-04-18T13:39:44.698Z,5.20
2023-04-18T13:42:18.474Z,5.60
2023-04-18T13:44:49.688Z,6.80
2023-04-18T13:47:19.355Z,6.07
2023-04-18T13:49:48.687Z,5.77
2023-04-18T13:52:18.034Z,6.07
2023-04-18T13:54:48.178Z,6.60
2023-04-18T13:57:20.069Z,5.73
2023-04-18T13:59:49.366Z,5.93
2023-04-18T14:02:18.685Z,6.13
2023-04-18T14:04:48.211Z,5.67
2023-04-18T14:07:17.815Z,6.60
2023-04-18T14:09:48.315Z,5.70
2023-04-18T14:12:20.190Z,6.20
2023-04-18T14:14:49.429Z,5.30
2023-04-18T14:17:18.679Z,6.10
2023-04-18T14:19:48.716Z,5.77
2023-04-18T14:22:17.942Z,5.70
2023-04-18T14:24:47.182Z,5.20
2023-04-18T14:27:21.731Z,5.85
2023-04-18T14:29:51.062Z,5.40
2023-04-18T14:32:20.386Z,5.57
2023-04-18T14:34:49.702Z,5.97
2023-04-18T14:37:18.983Z,5.70
2023-04-18T14:39:48.683Z,5.30
2023-04-18T14:42:18.090Z,5.00
2023-04-18T14:44:50.047Z,5.73
2023-04-18T14:47:19.981Z,5.35
2023-04-18T14:49:49.260Z,5.03
2023-04-18T14:52:18.636Z,4.70
2023-04-18T14:54:48.037Z,5.30
2023-04-18T14:57:17.378Z,5.30
2023-04-18T14:59:46.773Z,5.33
2023-04-18T15:02:18.752Z,5.03
2023-04-18T15:04:48.386Z,5.75
2023-04-18T15:07:18.273Z,5.40
2023-04-18T15:09:47.583Z,4.87
2023-04-18T15:12:16.922Z,6.07
2023-04-18T15:14:46.268Z,5.70
2023-04-18T15:17:18.097Z,5.20
2023-04-18T15:19:47.376Z,5.28
2023-04-18T15:22:16.673Z,4.87
2023-04-18T15:24:47.494Z,4.97
2023-04-18T15:27:16.868Z,5.10
2023-04-18T15:29:47.136Z,4.57
2023-04-18T15:32:19.070Z,4.83
2023-04-18T15:34:48.486Z,5.40
2023-04-18T15:37:17.884Z,5.30
2023-04-18T15:39:47.330Z,5.53
2023-04-18T15:42:16.671Z,5.80
2023-04-18T15:44:46.473Z,5.37
2023-04-18T15:47:15.985Z,5.57
2023-04-18T15:49:48.186Z,5.63
2023-04-18T15:52:18.539Z,5.53
2023-04-18T15:54:47.840Z,6.67
2023-04-18T15:57:17.224Z,6.30
2023-04-18T15:59:46.644Z,6.63
2023-04-18T16:02:16.002Z,6.37
2023-04-18T16:04:48.072Z,6.93
2023-04-18T16:07:17.431Z,7.00
2023-04-18T16:09:46.758Z,6.50
2023-04-18T16:12:16.436Z,6.23
2023-04-18T16:14:45.791Z,6.70
2023-04-18T16:17:15.108Z,6.40
2023-04-18T16:19:44.440Z,6.83
2023-04-18T16:22:16.322Z,6.40
2023-04-18T16:24:45.641Z,6.55
2023-04-18T16:27:14.994Z,7.10
2023-04-18T16:29:44.603Z,6.80
2023-04-18T16:32:14.061Z,7.33
2023-04-18T16:34:43.382Z,7.07
2023-04-18T16:37:12.706Z,7.73
2023-04-18T16:39:44.846Z,7.10
2023-04-18T16:42:15.618Z,6.72
2023-04-18T16:44:45.460Z,6.73
2023-04-18T16:47:15.207Z,6.57
2023-04-18T16:49:46.738Z,7.93
2023-04-18T16:52:17.044Z,7.33
2023-04-18T16:54:51.249Z,8.20
2023-04-18T16:57:21.885Z,7.20
2023-04-18T16:59:51.203Z,7.37
2023-04-18T17:02:20.774Z,7.50
2023-04-18T17:04:50.344Z,7.60
2023-04-18T17:07:19.651Z,8.03
2023-04-18T17:09:52.059Z,7.07
2023-04-18T17:12:21.335Z,7.97
2023-04-18T17:14:50.671Z,15.80
2023-04-18T17:17:19.985Z,7.77
2023-04-18T17:19:49.228Z,7.97
2023-04-18T17:22:18.465Z,7.50
2023-04-18T17:24:47.705Z,8.20
2023-04-18T17:27:19.614Z,8.43
2023-04-18T17:29:48.861Z,7.50
2023-04-18T17:32:18.128Z,7.37
2023-04-18T17:34:47.353Z,8.27
2023-04-18T17:37:17.211Z,8.37
2023-04-18T17:39:46.550Z,8.80
2023-04-18T17:42:16.025Z,7.33
2023-04-18T17:44:47.832Z,8.20
2023-04-18T17:47:17.125Z,8.35
2023-04-18T17:49:46.518Z,8.13
2023-04-18T17:52:15.884Z,8.27
2023-04-18T17:54:45.118Z,9.47
2023-04-18T17:57:14.371Z,7.83
2023-04-18T17:59:43.685Z,9.00
2023-04-18T18:02:15.685Z,8.57
2023-04-18T18:04:45.133Z,8.55
2023-04-18T18:07:14.462Z,7.73
2023-04-18T18:09:45.561Z,8.23
2023-04-18T18:12:14.906Z,8.53
2023-04-18T18:14:44.199Z,8.20
2023-04-18T18:17:16.299Z,7.87
2023-04-18T18:19:45.591Z,8.65
2023-04-18T18:22:14.857Z,7.70
2023-04-18T18:24:44.110Z,8.27
2023-04-18T18:27:13.369Z,8.50
2023-04-18T18:29:42.644Z,7.77
2023-04-18T18:32:11.943Z,8.20
2023-04-18T18:34:43.839Z,8.73
2023-04-18T18:37:13.104Z,7.90
2023-04-18T18:39:42.386Z,8.20
2023-04-18T18:42:11.686Z,7.43
2023-04-18T18:44:41.182Z,8.23
2023-04-18T18:47:10.454Z,7.87
2023-04-18T18:49:39.728Z,8.17
2023-04-18T18:52:11.588Z,8.37
2023-04-18T18:54:41.038Z,8.27
2023-04-18T18:57:10.555Z,7.53
2023-04-18T18:59:39.838Z,7.83
2023-04-18T19:02:09.495Z,7.73
2023-04-18T19:04:38.989Z,8.93
2023-04-18T19:07:10.916Z,8.10
2023-04-18T19:09:40.243Z,7.88
2023-04-18T19:12:10.093Z,7.33
2023-04-18T19:14:41.236Z,8.20
2023-04-18T19:17:11.592Z,8.30
2023-04-18T19:19:42.137Z,7.97
2023-04-18T19:22:14.091Z,7.23
2023-04-18T19:24:43.410Z,7.88
2023-04-18T19:27:12.723Z,8.43
2023-04-18T19:29:42.027Z,7.33
2023-04-18T19:32:11.356Z,7.73
2023-04-18T19:34:40.647Z,7.73
2023-04-18T19:37:09.901Z,7.57
2023-04-18T19:39:41.778Z,8.50
2023-04-18T19:42:11.101Z,7.43
2023-04-18T19:44:40.390Z,7.63
2023-04-18T19:47:09.653Z,7.27
2023-04-18T19:49:38.909Z,6.90
2023-04-18T19:52:08.560Z,7.03
2023-04-18T19:54:37.837Z,6.40
2023-04-18T19:57:09.650Z,6.27
2023-04-18T19:59:38.903Z,6.20
2023-04-18T20:02:08.187Z,6.30
2023-04-18T20:04:37.672Z,6.20
2023-04-18T20:07:07.683Z,6.03
2023-04-18T20:09:37.514Z,5.03
2023-04-18T20:12:09.503Z,6.10
2023-04-18T20:14:38.819Z,5.57
2023-04-18T20:17:08.153Z,5.17
2023-04-18T20:19:37.486Z,4.50
2023-04-18T20:22:06.836Z,4.50
2023-04-18T20:24:39.420Z,5.13
2023-04-18T20:29:40.465Z,4.60
2023-04-18T20:32:09.777Z,4.15
2023-04-18T20:34:39.077Z,5.13
2023-04-18T20:37:09.545Z,4.60
2023-04-18T20:39:40.034Z,4.23
2023-04-18T20:42:14.332Z,4.40
2023-04-18T20:44:47.671Z,3.97
2023-04-18T20:47:17.962Z,4.30
2023-04-18T20:49:47.963Z,4.13
2023-04-18T20:52:17.237Z,4.07
2023-04-18T20:54:46.689Z,4.17
2023-04-18T20:57:16.152Z,3.90
2023-04-18T20:59:48.614Z,3.97
2023-04-18T21:02:17.901Z,3.17
2023-04-18T21:04:47.457Z,4.00
2023-04-18T21:07:16.893Z,4.33
2023-04-18T21:09:46.192Z,3.67
2023-04-18T21:12:15.401Z,4.00
2023-04-18T21:14:44.657Z,3.57
2023-04-18T21:17:17.553Z,3.73
2023-04-18T21:19:47.352Z,3.70
2023-04-18T21:22:16.931Z,3.50
2023-04-18T21:24:46.994Z,4.30
2023-04-18T21:27:16.413Z,3.47
2023-04-18T21:29:45.964Z,3.57
2023-04-18T21:32:17.825Z,3.43
2023-04-18T21:34:47.092Z,3.70
2023-04-18T21:37:16.345Z,3.73
2023-04-18T21:39:45.762Z,3.40
2023-04-18T21:42:14.986Z,3.57
2023-04-18T21:44:44.242Z,4.17
2023-04-18T21:47:13.472Z,3.80
2023-04-18T21:49:45.661Z,3.73
2023-04-18T21:52:14.944Z,4.28
2023-04-18T21:54:44.176Z,4.10
2023-04-18T21:57:13.460Z,4.40
2023-04-18T21:59:42.721Z,4.23
2023-04-18T22:02:12.639Z,4.13
2023-04-18T22:04:42.669Z,4.20
2023-04-18T22:07:15.681Z,4.40
2023-04-18T22:09:44.979Z,4.00
2023-04-18T22:12:14.482Z,4.60
